sensor_id;sensor_type;location;lat;lon;timestamp;temperature;humidity
28374;DHT22;15616;40.148;-102.718;2023-06-01T00:01:33;23.20;48.00
28374;DHT22;15616;40.148;-102.718;2023-06-01T00:04:02;23.20;48.00
28374;DHT22;15616;40.148;-102.718;2023-06-01T00:06:28;23.20;48.10
28374;DHT22;15616;40.148;-102.718;2023-06-01T00:08:56;23.20;48.10
28374;DHT22;15616;40.148;-102.718;2023-06-01T00:11:22;23.20;48.10
28374;DHT22;15616;40.148;-102.718;2023-06-01T00:13:48;23.20;48.10
28374;DHT22;15616;40.148;-102.718;2023-06-01T00:16:14;23.10;48.10
28374;DHT22;15616;40.148;-102.718;2023-06-01T00:18:40;23.10;48.20
28374;DHT22;15616;40.148;-102.718;2023-06-01T00:21:06;23.10;48.20
28374;DHT22;15616;40.148;-102.718;2023-06-01T00:23:32;23.10;48.20
28374;DHT22;15616;40.148;-102.718;2023-06-01T00:25:58;23.10;48.30
28374;DHT22;15616;40.148;-102.718;2023-06-01T00:28:23;23.10;48.30
28374;DHT22;15616;40.148;-102.718;2023-06-01T00:30:49;23.10;48.30
28374;DHT22;15616;40.148;-102.718;2023-06-01T00:33:15;23.10;48.40
28374;DHT22;15616;40.148;-102.718;2023-06-01T00:35:41;23.00;48.30
28374;DHT22;15616;40.148;-102.718;2023-06-01T00:38:07;23.00;48.40
28374;DHT22;15616;40.148;-102.718;2023-06-01T00:40:33;23.00;48.40
28374;DHT22;15616;40.148;-102.718;2023-06-01T00:42:59;23.00;48.40
28374;DHT22;15616;40.148;-102.718;2023-06-01T00:45:24;23.00;48.40
28374;DHT22;15616;40.148;-102.718;2023-06-01T00:47:50;23.00;48.40
28374;DHT22;15616;40.148;-102.718;2023-06-01T00:50:16;23.00;48.50
28374;DHT22;15616;40.148;-102.718;2023-06-01T00:52:42;23.00;48.50
28374;DHT22;15616;40.148;-102.718;2023-06-01T00:55:08;23.00;48.40
28374;DHT22;15616;40.148;-102.718;2023-06-01T00:57:35;23.00;48.50
28374;DHT22;15616;40.148;-102.718;2023-06-01T01:00:02;23.00;48.50
28374;DHT22;15616;40.148;-102.718;2023-06-01T01:02:35;23.00;48.50
28374;DHT22;15616;40.148;-102.718;2023-06-01T01:05:03;23.00;48.50
28374;DHT22;15616;40.148;-102.718;2023-06-01T01:07:32;23.00;48.50
28374;DHT22;15616;40.148;-102.718;2023-06-01T01:12:47;23.00;48.50
28374;DHT22;15616;40.148;-102.718;2023-06-01T01:15:29;23.00;48.50
28374;DHT22;15616;40.148;-102.718;2023-06-01T01:18:04;22.90;48.50
28374;DHT22;15616;40.148;-102.718;2023-06-01T01:20:36;22.90;48.60
28374;DHT22;15616;40.148;-102.718;2023-06-01T01:23:06;22.90;48.60
28374;DHT22;15616;40.148;-102.718;2023-06-01T01:30:51;22.90;48.60
28374;DHT22;15616;40.148;-102.718;2023-06-01T01:33:19;22.90;48.60
28374;DHT22;15616;40.148;-102.718;2023-06-01T01:35:45;23.00;48.60
28374;DHT22;15616;40.148;-102.718;2023-06-01T01:38:12;22.90;48.60
28374;DHT22;15616;40.148;-102.718;2023-06-01T01:40:38;22.90;48.50
28374;DHT22;15616;40.148;-102.718;2023-06-01T01:43:03;22.90;48.50
28374;DHT22;15616;40.148;-102.718;2023-06-01T01:45:29;23.00;48.60
28374;DHT22;15616;40.148;-102.718;2023-06-01T01:50:21;22.90;48.50
28374;DHT22;15616;40.148;-102.718;2023-06-01T01:52:48;22.90;48.50
28374;DHT22;15616;40.148;-102.718;2023-06-01T01:55:14;22.90;48.60
28374;DHT22;15616;40.148;-102.718;2023-06-01T01:57:41;22.90;48.60
28374;DHT22;15616;40.148;-102.718;2023-06-01T02:00:07;22.90;48.60
28374;DHT22;15616;40.148;-102.718;2023-06-01T02:02:33;22.90;48.60
28374;DHT22;15616;40.148;-102.718;2023-06-01T02:04:59;22.90;48.60
28374;DHT22;15616;40.148;-102.718;2023-06-01T02:07:25;22.90;48.60
28374;DHT22;15616;40.148;-102.718;2023-06-01T02:09:50;22.90;48.60
28374;DHT22;15616;40.148;-102.718;2023-06-01T02:12:16;22.80;48.60
28374;DHT22;15616;40.148;-102.718;2023-06-01T02:14:42;22.80;48.60
28374;DHT22;15616;40.148;-102.718;2023-06-01T02:17:07;22.80;48.60
28374;DHT22;15616;40.148;-102.718;2023-06-01T02:19:33;22.80;48.60
28374;DHT22;15616;40.148;-102.718;2023-06-01T02:21:59;22.80;48.60
28374;DHT22;15616;40.148;-102.718;2023-06-01T02:24:25;22.80;48.60
28374;DHT22;15616;40.148;-102.718;2023-06-01T02:26:51;22.80;48.60
28374;DHT22;15616;40.148;-102.718;2023-06-01T02:29:21;22.80;48.60
28374;DHT22;15616;40.148;-102.718;2023-06-01T02:31:48;22.80;48.60
28374;DHT22;15616;40.148;-102.718;2023-06-01T02:34:14;22.80;48.60
28374;DHT22;15616;40.148;-102.718;2023-06-01T02:36:40;22.80;48.60
28374;DHT22;15616;40.148;-102.718;2023-06-01T02:39:06;22.80;48.60
28374;DHT22;15616;40.148;-102.718;2023-06-01T02:41:32;22.80;48.60
28374;DHT22;15616;40.148;-102.718;2023-06-01T02:43:57;22.80;48.60
28374;DHT22;15616;40.148;-102.718;2023-06-01T02:46:23;22.80;48.60
28374;DHT22;15616;40.148;-102.718;2023-06-01T02:48:49;22.80;48.60
28374;DHT22;15616;40.148;-102.718;2023-06-01T02:51:15;22.80;48.60
28374;DHT22;15616;40.148;-102.718;2023-06-01T02:53:41;22.80;48.60
28374;DHT22;15616;40.148;-102.718;2023-06-01T02:56:07;22.80;48.60
28374;DHT22;15616;40.148;-102.718;2023-06-01T02:58:33;22.80;48.60
28374;DHT22;15616;40.148;-102.718;2023-06-01T03:00:59;22.80;48.60
28374;DHT22;15616;40.148;-102.718;2023-06-01T03:03:26;22.80;48.60
28374;DHT22;15616;40.148;-102.718;2023-06-01T03:05:52;22.80;48.60
28374;DHT22;15616;40.148;-102.718;2023-06-01T03:08:18;22.70;48.50
28374;DHT22;15616;40.148;-102.718;2023-06-01T03:10:44;22.80;48.60
28374;DHT22;15616;40.148;-102.718;2023-06-01T03:13:09;22.80;48.60
28374;DHT22;15616;40.148;-102.718;2023-06-01T03:15:35;22.80;48.60
28374;DHT22;15616;40.148;-102.718;2023-06-01T03:18:03;22.70;48.50
28374;DHT22;15616;40.148;-102.718;2023-06-01T03:20:29;22.70;48.50
28374;DHT22;15616;40.148;-102.718;2023-06-01T03:22:55;22.80;48.60
28374;DHT22;15616;40.148;-102.718;2023-06-01T03:25:21;22.70;48.50
28374;DHT22;15616;40.148;-102.718;2023-06-01T03:27:46;22.70;48.50
28374;DHT22;15616;40.148;-102.718;2023-06-01T03:30:12;22.80;48.60
28374;DHT22;15616;40.148;-102.718;2023-06-01T03:32:38;22.80;48.60
28374;DHT22;15616;40.148;-102.718;2023-06-01T03:35:04;22.70;48.60
28374;DHT22;15616;40.148;-102.718;2023-06-01T03:37:35;22.70;48.60
28374;DHT22;15616;40.148;-102.718;2023-06-01T03:40:02;22.70;48.50
28374;DHT22;15616;40.148;-102.718;2023-06-01T03:42:45;22.70;48.60
28374;DHT22;15616;40.148;-102.718;2023-06-01T03:45:12;22.70;48.70
28374;DHT22;15616;40.148;-102.718;2023-06-01T03:47:38;22.70;48.70
28374;DHT22;15616;40.148;-102.718;2023-06-01T03:50:04;22.70;48.60
28374;DHT22;15616;40.148;-102.718;2023-06-01T03:52:32;22.70;48.60
28374;DHT22;15616;40.148;-102.718;2023-06-01T03:54:58;22.70;48.60
28374;DHT22;15616;40.148;-102.718;2023-06-01T03:57:24;22.70;48.60
28374;DHT22;15616;40.148;-102.718;2023-06-01T03:59:50;22.70;48.70
28374;DHT22;15616;40.148;-102.718;2023-06-01T04:02:19;22.70;48.70
28374;DHT22;15616;40.148;-102.718;2023-06-01T04:04:47;22.70;48.70
28374;DHT22;15616;40.148;-102.718;2023-06-01T04:07:14;22.70;48.70
28374;DHT22;15616;40.148;-102.718;2023-06-01T04:09:47;22.70;48.70
28374;DHT22;15616;40.148;-102.718;2023-06-01T04:12:13;22.70;48.60
28374;DHT22;15616;40.148;-102.718;2023-06-01T04:14:39;22.70;48.70
28374;DHT22;15616;40.148;-102.718;2023-06-01T04:17:05;22.60;48.70
28374;DHT22;15616;40.148;-102.718;2023-06-01T04:19:32;22.60;48.70
28374;DHT22;15616;40.148;-102.718;2023-06-01T04:21:58;22.60;48.60
28374;DHT22;15616;40.148;-102.718;2023-06-01T04:24:23;22.60;48.50
28374;DHT22;15616;40.148;-102.718;2023-06-01T04:26:49;22.60;48.50
28374;DHT22;15616;40.148;-102.718;2023-06-01T04:29:16;22.60;48.50
28374;DHT22;15616;40.148;-102.718;2023-06-01T04:31:41;22.70;48.50
28374;DHT22;15616;40.148;-102.718;2023-06-01T04:34:07;22.70;48.50
28374;DHT22;15616;40.148;-102.718;2023-06-01T04:36:33;22.70;48.40
28374;DHT22;15616;40.148;-102.718;2023-06-01T04:39:02;22.70;48.40
28374;DHT22;15616;40.148;-102.718;2023-06-01T04:41:28;22.70;48.40
28374;DHT22;15616;40.148;-102.718;2023-06-01T04:43:56;22.70;48.40
28374;DHT22;15616;40.148;-102.718;2023-06-01T04:46:24;22.70;48.40
28374;DHT22;15616;40.148;-102.718;2023-06-01T04:48:52;22.70;48.40
28374;DHT22;15616;40.148;-102.718;2023-06-01T04:51:18;22.70;48.40
28374;DHT22;15616;40.148;-102.718;2023-06-01T04:53:50;22.70;48.40
28374;DHT22;15616;40.148;-102.718;2023-06-01T04:56:17;22.70;48.40
28374;DHT22;15616;40.148;-102.718;2023-06-01T04:58:43;22.70;48.40
28374;DHT22;15616;40.148;-102.718;2023-06-01T05:01:10;22.70;48.30
28374;DHT22;15616;40.148;-102.718;2023-06-01T05:03:41;22.70;48.40
28374;DHT22;15616;40.148;-102.718;2023-06-01T05:06:07;22.70;48.40
28374;DHT22;15616;40.148;-102.718;2023-06-01T05:08:32;22.60;48.30
28374;DHT22;15616;40.148;-102.718;2023-06-01T05:10:58;22.60;48.30
28374;DHT22;15616;40.148;-102.718;2023-06-01T05:13:24;22.60;48.40
28374;DHT22;15616;40.148;-102.718;2023-06-01T05:15:50;22.60;48.40
28374;DHT22;15616;40.148;-102.718;2023-06-01T05:18:16;22.60;48.40
28374;DHT22;15616;40.148;-102.718;2023-06-01T05:20:41;22.60;48.40
28374;DHT22;15616;40.148;-102.718;2023-06-01T05:23:07;22.70;48.40
28374;DHT22;15616;40.148;-102.718;2023-06-01T05:25:33;22.60;48.30
28374;DHT22;15616;40.148;-102.718;2023-06-01T05:27:59;22.60;48.40
28374;DHT22;15616;40.148;-102.718;2023-06-01T05:30:24;22.60;48.30
28374;DHT22;15616;40.148;-102.718;2023-06-01T05:32:50;22.60;48.30
28374;DHT22;15616;40.148;-102.718;2023-06-01T05:35:16;22.60;48.30
28374;DHT22;15616;40.148;-102.718;2023-06-01T05:37:42;22.60;48.40
28374;DHT22;15616;40.148;-102.718;2023-06-01T05:40:08;22.60;48.30
28374;DHT22;15616;40.148;-102.718;2023-06-01T05:42:34;22.60;48.30
28374;DHT22;15616;40.148;-102.718;2023-06-01T05:45:01;22.60;48.30
28374;DHT22;15616;40.148;-102.718;2023-06-01T05:47:26;22.60;48.30
28374;DHT22;15616;40.148;-102.718;2023-06-01T05:49:52;22.60;48.30
28374;DHT22;15616;40.148;-102.718;2023-06-01T05:52:18;22.60;48.30
28374;DHT22;15616;40.148;-102.718;2023-06-01T05:54:44;22.60;48.30
28374;DHT22;15616;40.148;-102.718;2023-06-01T05:57:09;22.60;48.30
28374;DHT22;15616;40.148;-102.718;2023-06-01T05:59:35;22.60;48.20
28374;DHT22;15616;40.148;-102.718;2023-06-01T06:02:01;22.60;48.20
28374;DHT22;15616;40.148;-102.718;2023-06-01T06:04:27;22.60;48.20
28374;DHT22;15616;40.148;-102.718;2023-06-01T06:06:53;22.60;48.20
28374;DHT22;15616;40.148;-102.718;2023-06-01T06:09:19;22.70;48.20
28374;DHT22;15616;40.148;-102.718;2023-06-01T06:11:45;22.60;48.10
28374;DHT22;15616;40.148;-102.718;2023-06-01T06:14:10;22.60;48.10
28374;DHT22;15616;40.148;-102.718;2023-06-01T06:16:37;22.60;48.10
28374;DHT22;15616;40.148;-102.718;2023-06-01T06:19:02;22.60;48.20
28374;DHT22;15616;40.148;-102.718;2023-06-01T06:21:28;22.60;48.20
28374;DHT22;15616;40.148;-102.718;2023-06-01T06:23:54;22.60;48.20
28374;DHT22;15616;40.148;-102.718;2023-06-01T06:26:24;22.60;48.20
28374;DHT22;15616;40.148;-102.718;2023-06-01T06:28:51;22.60;48.30
28374;DHT22;15616;40.148;-102.718;2023-06-01T06:31:17;22.60;48.20
28374;DHT22;15616;40.148;-102.718;2023-06-01T06:33:43;22.60;48.20
28374;DHT22;15616;40.148;-102.718;2023-06-01T06:36:08;22.60;48.10
28374;DHT22;15616;40.148;-102.718;2023-06-01T06:38:34;22.60;48.10
28374;DHT22;15616;40.148;-102.718;2023-06-01T06:41:00;22.70;48.00
28374;DHT22;15616;40.148;-102.718;2023-06-01T06:43:26;22.70;48.00
28374;DHT22;15616;40.148;-102.718;2023-06-01T06:45:51;22.70;48.00
28374;DHT22;15616;40.148;-102.718;2023-06-01T06:48:17;22.70;47.90
28374;DHT22;15616;40.148;-102.718;2023-06-01T06:50:43;22.70;47.90
28374;DHT22;15616;40.148;-102.718;2023-06-01T06:53:10;22.70;47.90
28374;DHT22;15616;40.148;-102.718;2023-06-01T06:55:36;22.70;48.00
28374;DHT22;15616;40.148;-102.718;2023-06-01T06:58:02;22.70;48.00
28374;DHT22;15616;40.148;-102.718;2023-06-01T07:00:27;22.70;48.00
28374;DHT22;15616;40.148;-102.718;2023-06-01T07:02:54;22.70;48.00
28374;DHT22;15616;40.148;-102.718;2023-06-01T07:05:20;22.70;48.00
28374;DHT22;15616;40.148;-102.718;2023-06-01T07:07:46;22.70;47.90
28374;DHT22;15616;40.148;-102.718;2023-06-01T07:10:12;22.70;47.90
28374;DHT22;15616;40.148;-102.718;2023-06-01T07:12:38;22.70;47.80
28374;DHT22;15616;40.148;-102.718;2023-06-01T07:15:03;22.70;47.80
28374;DHT22;15616;40.148;-102.718;2023-06-01T07:17:30;22.80;47.80
28374;DHT22;15616;40.148;-102.718;2023-06-01T07:19:56;22.80;47.70
28374;DHT22;15616;40.148;-102.718;2023-06-01T07:22:21;22.80;47.70
28374;DHT22;15616;40.148;-102.718;2023-06-01T07:24:47;22.80;47.60
28374;DHT22;15616;40.148;-102.718;2023-06-01T07:27:13;22.80;47.70
28374;DHT22;15616;40.148;-102.718;2023-06-01T07:29:39;22.80;47.70
28374;DHT22;15616;40.148;-102.718;2023-06-01T07:32:06;22.80;47.70
28374;DHT22;15616;40.148;-102.718;2023-06-01T07:34:32;22.80;47.80
28374;DHT22;15616;40.148;-102.718;2023-06-01T07:37:01;22.70;47.80
28374;DHT22;15616;40.148;-102.718;2023-06-01T07:39:27;22.70;47.80
28374;DHT22;15616;40.148;-102.718;2023-06-01T07:41:52;22.70;47.90
28374;DHT22;15616;40.148;-102.718;2023-06-01T07:44:19;22.70;47.90
28374;DHT22;15616;40.148;-102.718;2023-06-01T07:46:45;22.70;47.90
28374;DHT22;15616;40.148;-102.718;2023-06-01T07:49:12;22.70;47.90
28374;DHT22;15616;40.148;-102.718;2023-06-01T07:51:40;22.70;47.90
28374;DHT22;15616;40.148;-102.718;2023-06-01T07:54:05;22.70;47.90
28374;DHT22;15616;40.148;-102.718;2023-06-01T07:56:31;22.70;47.80
28374;DHT22;15616;40.148;-102.718;2023-06-01T07:58:57;22.60;47.80
28374;DHT22;15616;40.148;-102.718;2023-06-01T08:01:22;22.70;47.90
28374;DHT22;15616;40.148;-102.718;2023-06-01T08:03:48;22.60;47.90
28374;DHT22;15616;40.148;-102.718;2023-06-01T08:06:14;22.60;47.80
28374;DHT22;15616;40.148;-102.718;2023-06-01T08:08:40;22.60;47.90
28374;DHT22;15616;40.148;-102.718;2023-06-01T08:11:07;22.70;47.90
28374;DHT22;15616;40.148;-102.718;2023-06-01T08:13:33;22.60;47.90
28374;DHT22;15616;40.148;-102.718;2023-06-01T08:16:01;22.60;47.90
28374;DHT22;15616;40.148;-102.718;2023-06-01T08:18:28;22.60;47.90
28374;DHT22;15616;40.148;-102.718;2023-06-01T08:20:54;22.70;48.00
28374;DHT22;15616;40.148;-102.718;2023-06-01T08:23:21;22.60;47.90
28374;DHT22;15616;40.148;-102.718;2023-06-01T08:25:48;22.70;48.00
28374;DHT22;15616;40.148;-102.718;2023-06-01T08:28:13;22.70;48.00
28374;DHT22;15616;40.148;-102.718;2023-06-01T08:30:39;22.70;48.00
28374;DHT22;15616;40.148;-102.718;2023-06-01T08:33:05;22.70;48.00
28374;DHT22;15616;40.148;-102.718;2023-06-01T08:35:31;22.70;47.90
28374;DHT22;15616;40.148;-102.718;2023-06-01T08:37:59;22.70;47.90
28374;DHT22;15616;40.148;-102.718;2023-06-01T08:40:25;22.70;47.90
28374;DHT22;15616;40.148;-102.718;2023-06-01T08:42:59;22.70;47.80
28374;DHT22;15616;40.148;-102.718;2023-06-01T08:45:25;22.70;47.70
28374;DHT22;15616;40.148;-102.718;2023-06-01T08:47:55;22.70;47.60
28374;DHT22;15616;40.148;-102.718;2023-06-01T08:50:21;22.80;47.60
28374;DHT22;15616;40.148;-102.718;2023-06-01T08:52:47;22.70;47.50
28374;DHT22;15616;40.148;-102.718;2023-06-01T08:55:14;22.80;47.80
28374;DHT22;15616;40.148;-102.718;2023-06-01T08:57:40;22.80;47.50
28374;DHT22;15616;40.148;-102.718;2023-06-01T09:00:07;22.80;47.50
28374;DHT22;15616;40.148;-102.718;2023-06-01T09:02:33;22.80;47.40
28374;DHT22;15616;40.148;-102.718;2023-06-01T09:04:59;22.80;47.40
28374;DHT22;15616;40.148;-102.718;2023-06-01T09:07:25;22.80;47.50
28374;DHT22;15616;40.148;-102.718;2023-06-01T09:09:51;22.80;47.40
28374;DHT22;15616;40.148;-102.718;2023-06-01T09:14:43;22.80;47.30
28374;DHT22;15616;40.148;-102.718;2023-06-01T09:17:12;22.80;47.30
28374;DHT22;15616;40.148;-102.718;2023-06-01T09:19:41;22.80;47.30
28374;DHT22;15616;40.148;-102.718;2023-06-01T09:22:08;22.80;47.30
28374;DHT22;15616;40.148;-102.718;2023-06-01T09:24:33;22.90;47.30
28374;DHT22;15616;40.148;-102.718;2023-06-01T09:27:00;22.80;47.30
28374;DHT22;15616;40.148;-102.718;2023-06-01T09:29:26;22.90;47.30
28374;DHT22;15616;40.148;-102.718;2023-06-01T09:31:52;22.90;47.30
28374;DHT22;15616;40.148;-102.718;2023-06-01T09:34:19;22.90;47.30
28374;DHT22;15616;40.148;-102.718;2023-06-01T09:36:45;22.90;47.30
28374;DHT22;15616;40.148;-102.718;2023-06-01T09:39:12;22.90;48.00
28374;DHT22;15616;40.148;-102.718;2023-06-01T09:41:54;22.90;47.20
28374;DHT22;15616;40.148;-102.718;2023-06-01T09:44:24;23.00;47.30
28374;DHT22;15616;40.148;-102.718;2023-06-01T09:46:51;23.00;47.30
28374;DHT22;15616;40.148;-102.718;2023-06-01T09:49:18;23.00;47.20
28374;DHT22;15616;40.148;-102.718;2023-06-01T09:51:45;23.00;47.20
28374;DHT22;15616;40.148;-102.718;2023-06-01T09:54:20;23.00;47.20
28374;DHT22;15616;40.148;-102.718;2023-06-01T09:56:46;23.00;47.20
28374;DHT22;15616;40.148;-102.718;2023-06-01T09:59:12;23.00;47.20
28374;DHT22;15616;40.148;-102.718;2023-06-01T10:01:39;23.00;47.20
28374;DHT22;15616;40.148;-102.718;2023-06-01T10:04:06;23.00;47.20
28374;DHT22;15616;40.148;-102.718;2023-06-01T10:06:33;23.00;47.20
28374;DHT22;15616;40.148;-102.718;2023-06-01T10:09:00;23.00;47.20
28374;DHT22;15616;40.148;-102.718;2023-06-01T10:11:27;23.00;47.20
28374;DHT22;15616;40.148;-102.718;2023-06-01T10:13:54;23.00;47.10
28374;DHT22;15616;40.148;-102.718;2023-06-01T10:16:21;23.00;47.00
28374;DHT22;15616;40.148;-102.718;2023-06-01T10:18:47;23.00;47.00
28374;DHT22;15616;40.148;-102.718;2023-06-01T10:21:13;23.00;47.10
28374;DHT22;15616;40.148;-102.718;2023-06-01T10:23:40;23.00;47.10
28374;DHT22;15616;40.148;-102.718;2023-06-01T10:26:08;23.00;47.10
28374;DHT22;15616;40.148;-102.718;2023-06-01T10:28:36;23.10;47.10
28374;DHT22;15616;40.148;-102.718;2023-06-01T10:33:53;23.10;47.00
28374;DHT22;15616;40.148;-102.718;2023-06-01T10:36:19;23.10;47.00
28374;DHT22;15616;40.148;-102.718;2023-06-01T10:38:44;23.10;47.00
28374;DHT22;15616;40.148;-102.718;2023-06-01T10:41:26;23.10;46.90
28374;DHT22;15616;40.148;-102.718;2023-06-01T10:43:53;23.10;46.90
28374;DHT22;15616;40.148;-102.718;2023-06-01T10:46:35;23.10;46.90
28374;DHT22;15616;40.148;-102.718;2023-06-01T10:49:02;23.20;46.90
28374;DHT22;15616;40.148;-102.718;2023-06-01T10:51:27;23.20;46.90
28374;DHT22;15616;40.148;-102.718;2023-06-01T10:54:24;23.20;46.80
28374;DHT22;15616;40.148;-102.718;2023-06-01T10:56:41;23.20;46.80
28374;DHT22;15616;40.148;-102.718;2023-06-01T11:01:40;23.20;46.80
28374;DHT22;15616;40.148;-102.718;2023-06-01T11:04:06;23.20;46.80
28374;DHT22;15616;40.148;-102.718;2023-06-01T11:06:33;23.20;46.80
28374;DHT22;15616;40.148;-102.718;2023-06-01T11:09:01;23.20;46.80
28374;DHT22;15616;40.148;-102.718;2023-06-01T11:14:24;23.30;46.70
28374;DHT22;15616;40.148;-102.718;2023-06-01T11:16:50;23.30;46.70
28374;DHT22;15616;40.148;-102.718;2023-06-01T11:19:18;23.30;46.80
28374;DHT22;15616;40.148;-102.718;2023-06-01T11:21:46;23.30;46.70
28374;DHT22;15616;40.148;-102.718;2023-06-01T11:24:13;23.30;46.70
28374;DHT22;15616;40.148;-102.718;2023-06-01T11:26:40;23.30;46.70
28374;DHT22;15616;40.148;-102.718;2023-06-01T11:29:27;23.30;46.70
28374;DHT22;15616;40.148;-102.718;2023-06-01T11:31:57;23.30;46.60
28374;DHT22;15616;40.148;-102.718;2023-06-01T11:34:33;23.40;46.60
28374;DHT22;15616;40.148;-102.718;2023-06-01T11:37:20;23.30;46.60
28374;DHT22;15616;40.148;-102.718;2023-06-01T11:39:46;23.30;46.60
28374;DHT22;15616;40.148;-102.718;2023-06-01T11:42:19;23.30;46.60
28374;DHT22;15616;40.148;-102.718;2023-06-01T11:44:45;23.30;46.60
28374;DHT22;15616;40.148;-102.718;2023-06-01T11:47:12;23.40;46.70
28374;DHT22;15616;40.148;-102.718;2023-06-01T11:52:10;23.40;46.50
28374;DHT22;15616;40.148;-102.718;2023-06-01T11:54:36;23.40;46.50
28374;DHT22;15616;40.148;-102.718;2023-06-01T11:57:03;23.40;46.50
28374;DHT22;15616;40.148;-102.718;2023-06-01T11:59:38;23.40;46.50
28374;DHT22;15616;40.148;-102.718;2023-06-01T12:02:17;23.40;46.50
28374;DHT22;15616;40.148;-102.718;2023-06-01T12:04:53;23.50;46.50
28374;DHT22;15616;40.148;-102.718;2023-06-01T12:07:19;23.50;46.50
28374;DHT22;15616;40.148;-102.718;2023-06-01T12:09:46;23.50;46.50
28374;DHT22;15616;40.148;-102.718;2023-06-01T12:12:12;23.50;46.40
28374;DHT22;15616;40.148;-102.718;2023-06-01T12:14:38;23.50;46.40
28374;DHT22;15616;40.148;-102.718;2023-06-01T12:17:04;23.50;46.30
28374;DHT22;15616;40.148;-102.718;2023-06-01T12:19:30;23.50;46.30
28374;DHT22;15616;40.148;-102.718;2023-06-01T12:21:57;23.50;46.30
28374;DHT22;15616;40.148;-102.718;2023-06-01T12:24:30;23.50;46.30
28374;DHT22;15616;40.148;-102.718;2023-06-01T12:26:58;23.50;46.30
28374;DHT22;15616;40.148;-102.718;2023-06-01T12:29:40;23.50;46.30
28374;DHT22;15616;40.148;-102.718;2023-06-01T12:32:10;23.50;46.30
28374;DHT22;15616;40.148;-102.718;2023-06-01T12:34:36;23.60;46.40
28374;DHT22;15616;40.148;-102.718;2023-06-01T12:37:18;23.60;46.30
28374;DHT22;15616;40.148;-102.718;2023-06-01T12:39:51;23.60;46.30
28374;DHT22;15616;40.148;-102.718;2023-06-01T12:42:17;23.60;46.30
28374;DHT22;15616;40.148;-102.718;2023-06-01T12:44:43;23.60;46.30
28374;DHT22;15616;40.148;-102.718;2023-06-01T12:47:11;23.60;46.30
28374;DHT22;15616;40.148;-102.718;2023-06-01T12:49:37;23.60;46.30
28374;DHT22;15616;40.148;-102.718;2023-06-01T12:52:05;23.60;46.30
28374;DHT22;15616;40.148;-102.718;2023-06-01T12:54:31;23.60;46.20
28374;DHT22;15616;40.148;-102.718;2023-06-01T12:56:57;23.60;46.90
28374;DHT22;15616;40.148;-102.718;2023-06-01T12:59:23;23.60;46.20
28374;DHT22;15616;40.148;-102.718;2023-06-01T13:01:48;23.70;46.10
28374;DHT22;15616;40.148;-102.718;2023-06-01T13:04:14;23.70;46.10
28374;DHT22;15616;40.148;-102.718;2023-06-01T13:06:40;23.70;46.10
28374;DHT22;15616;40.148;-102.718;2023-06-01T13:09:06;23.70;46.10
28374;DHT22;15616;40.148;-102.718;2023-06-01T13:11:32;23.70;46.00
28374;DHT22;15616;40.148;-102.718;2023-06-01T13:13:58;23.70;46.00
28374;DHT22;15616;40.148;-102.718;2023-06-01T13:16:24;23.70;46.00
28374;DHT22;15616;40.148;-102.718;2023-06-01T13:18:50;23.80;46.10
28374;DHT22;15616;40.148;-102.718;2023-06-01T13:21:16;23.70;46.10
28374;DHT22;15616;40.148;-102.718;2023-06-01T13:23:42;23.70;46.10
28374;DHT22;15616;40.148;-102.718;2023-06-01T13:26:09;23.70;46.00
28374;DHT22;15616;40.148;-102.718;2023-06-01T13:28:35;23.70;46.00
28374;DHT22;15616;40.148;-102.718;2023-06-01T13:31:00;23.70;46.00
28374;DHT22;15616;40.148;-102.718;2023-06-01T13:33:26;23.70;46.00
28374;DHT22;15616;40.148;-102.718;2023-06-01T13:35:52;23.80;46.10
28374;DHT22;15616;40.148;-102.718;2023-06-01T13:38:17;23.80;46.00
28374;DHT22;15616;40.148;-102.718;2023-06-01T13:40:43;23.80;46.00
28374;DHT22;15616;40.148;-102.718;2023-06-01T13:43:09;23.80;46.00
28374;DHT22;15616;40.148;-102.718;2023-06-01T13:45:35;23.80;46.00
28374;DHT22;15616;40.148;-102.718;2023-06-01T13:48:01;23.80;46.00
28374;DHT22;15616;40.148;-102.718;2023-06-01T13:50:27;23.80;46.00
28374;DHT22;15616;40.148;-102.718;2023-06-01T13:52:53;23.80;46.00
28374;DHT22;15616;40.148;-102.718;2023-06-01T13:55:19;23.80;46.00
28374;DHT22;15616;40.148;-102.718;2023-06-01T13:57:45;23.80;46.00
28374;DHT22;15616;40.148;-102.718;2023-06-01T14:00:11;23.90;46.00
28374;DHT22;15616;40.148;-102.718;2023-06-01T14:02:37;23.90;46.00
28374;DHT22;15616;40.148;-102.718;2023-06-01T14:05:03;23.90;46.00
28374;DHT22;15616;40.148;-102.718;2023-06-01T14:07:29;23.90;46.00
28374;DHT22;15616;40.148;-102.718;2023-06-01T14:09:55;23.80;46.00
28374;DHT22;15616;40.148;-102.718;2023-06-01T14:12:21;23.80;46.00
28374;DHT22;15616;40.148;-102.718;2023-06-01T14:14:46;23.90;46.10
28374;DHT22;15616;40.148;-102.718;2023-06-01T14:17:12;23.90;46.10
28374;DHT22;15616;40.148;-102.718;2023-06-01T14:19:38;23.90;46.10
28374;DHT22;15616;40.148;-102.718;2023-06-01T14:22:04;23.90;46.10
28374;DHT22;15616;40.148;-102.718;2023-06-01T14:24:29;23.80;46.00
28374;DHT22;15616;40.148;-102.718;2023-06-01T14:26:55;23.80;46.00
28374;DHT22;15616;40.148;-102.718;2023-06-01T14:29:21;23.80;46.10
28374;DHT22;15616;40.148;-102.718;2023-06-01T14:31:47;23.90;46.10
28374;DHT22;15616;40.148;-102.718;2023-06-01T14:34:12;23.90;46.00
28374;DHT22;15616;40.148;-102.718;2023-06-01T14:36:38;23.90;46.00
28374;DHT22;15616;40.148;-102.718;2023-06-01T14:39:04;23.90;45.90
28374;DHT22;15616;40.148;-102.718;2023-06-01T14:41:30;23.90;45.90
28374;DHT22;15616;40.148;-102.718;2023-06-01T14:43:56;23.90;45.90
28374;DHT22;15616;40.148;-102.718;2023-06-01T14:46:21;24.00;45.80
28374;DHT22;15616;40.148;-102.718;2023-06-01T14:48:47;24.00;45.80
28374;DHT22;15616;40.148;-102.718;2023-06-01T14:51:13;24.00;45.70
28374;DHT22;15616;40.148;-102.718;2023-06-01T14:53:38;24.00;45.60
28374;DHT22;15616;40.148;-102.718;2023-06-01T14:56:07;24.10;45.50
28374;DHT22;15616;40.148;-102.718;2023-06-01T14:58:34;24.10;45.40
28374;DHT22;15616;40.148;-102.718;2023-06-01T15:01:00;24.20;45.50
28374;DHT22;15616;40.148;-102.718;2023-06-01T15:03:25;24.20;45.40
28374;DHT22;15616;40.148;-102.718;2023-06-01T15:05:51;24.20;45.30
28374;DHT22;15616;40.148;-102.718;2023-06-01T15:08:17;24.20;45.30
28374;DHT22;15616;40.148;-102.718;2023-06-01T15:10:47;24.30;45.30